createdAt,value
2017-04-18T00:00:57.980Z,0
2017-04-18T00:01:57.970Z,0
2017-04-18T00:02:57.963Z,0
2017-04-18T00:03:57.945Z,0
2017-04-18T00:04:57.939Z,0
2017-04-18T00:05:57.616Z,0
2017-04-18T00:06:57.912Z,0
2017-04-18T00:07:57.895Z,0
2017-04-18T00:08:57.886Z,0
2017-04-18T00:09:57.866Z,0
2017-04-18T00:10:57.855Z,0
2017-04-18T00:11:57.839Z,0
2017-04-18T00:12:57.833Z,0
2017-04-18T00:13:57.827Z,0
2017-04-18T00:14:57.802Z,0
2017-04-18T00:15:57.836Z,0
2017-04-18T00:16:57.779Z,0
2017-04-18T00:17:57.774Z,0
2017-04-18T00:18:57.755Z,0
2017-04-18T00:19:57.436Z,0
2017-04-18T00:20:57.728Z,0
2017-04-18T00:21:57.719Z,0
2017-04-18T00:22:57.703Z,0
2017-04-18T00:23:57.689Z,0
2017-04-18T00:24:57.675Z,0
2017-04-18T00:25:57.659Z,0
2017-04-18T00:26:57.650Z,0
2017-04-18T00:27:57.638Z,0
2017-04-18T00:28:57.655Z,0
2017-04-18T00:29:57.611Z,0
2017-04-18T00:30:57.595Z,0
2017-04-18T00:31:57.591Z,0
2017-04-18T00:32:57.578Z,0
2017-04-18T00:33:57.259Z,0
2017-04-18T00:34:57.545Z,0
2017-04-18T00:35:57.529Z,0
2017-04-18T00:36:57.522Z,0
2017-04-18T00:37:57.207Z,0
2017-04-18T00:38:57.197Z,0
2017-04-18T00:39:57.496Z,0
2017-04-18T00:40:57.469Z,0
2017-04-18T00:41:57.460Z,0
2017-04-18T00:42:57.443Z,0
2017-04-18T00:43:57.432Z,0
2017-04-18T00:44:57.420Z,0
2017-04-18T00:45:57.401Z,0
2017-04-18T00:46:57.388Z,0
2017-04-18T00:47:57.574Z,0
2017-04-18T00:48:57.373Z,0
2017-04-18T00:49:57.351Z,0
2017-04-18T00:50:57.036Z,0
2017-04-18T00:51:57.326Z,0
2017-04-18T00:52:57.323Z,0
2017-04-18T00:53:57.307Z,0
2017-04-18T00:54:57.290Z,0
2017-04-18T00:55:57.271Z,0
2017-04-18T00:56:57.259Z,0
2017-04-18T00:57:56.945Z,0
2017-04-18T00:58:56.933Z,0
2017-04-18T00:59:57.225Z,0
2017-04-18T01:00:56.912Z,0
2017-04-18T01:01:57.212Z,0
2017-04-18T01:02:57.190Z,0
2017-04-18T01:03:57.178Z,0
2017-04-18T01:04:57.160Z,0
2017-04-18T01:05:57.149Z,0
2017-04-18T01:06:57.139Z,0
2017-04-18T01:07:57.129Z,0
2017-04-18T01:08:57.111Z,0
2017-04-18T01:09:57.098Z,0
2017-04-18T01:10:57.083Z,0
2017-04-18T01:11:57.070Z,0
2017-04-18T01:12:56.756Z,0
2017-04-18T01:13:57.044Z,0
2017-04-18T01:14:56.729Z,0
2017-04-18T01:15:57.030Z,0
2017-04-18T01:16:56.709Z,0
2017-04-18T01:17:57.006Z,0
2017-04-18T01:18:56.984Z,0
2017-04-18T01:19:56.667Z,0
2017-04-18T01:20:56.958Z,0
2017-04-18T01:21:56.943Z,0
2017-04-18T01:22:56.937Z,0
2017-04-18T01:23:56.920Z,0
2017-04-18T01:24:56.910Z,0
2017-04-18T01:25:56.900Z,0
2017-04-18T01:26:56.880Z,0
2017-04-18T01:27:56.589Z,0
2017-04-18T01:28:56.858Z,0
2017-04-18T01:29:56.852Z,0
2017-04-18T01:30:56.833Z,0
2017-04-18T01:31:56.816Z,0
2017-04-18T01:32:56.505Z,0
2017-04-18T01:33:56.793Z,0
2017-04-18T01:34:56.779Z,0
2017-04-18T01:35:56.769Z,0
2017-04-18T01:36:56.773Z,0
2017-04-18T01:37:56.748Z,0
2017-04-18T01:38:56.429Z,0
2017-04-18T01:39:56.158Z,0
2017-04-18T01:40:56.709Z,0
2017-04-18T01:41:56.693Z,0
2017-04-18T01:42:56.680Z,0
2017-04-18T01:43:56.667Z,0
2017-04-18T01:44:56.657Z,0
2017-04-18T01:45:56.339Z,0
2017-04-18T01:46:56.782Z,0
2017-04-18T01:47:56.645Z,0
2017-04-18T01:48:56.605Z,0
2017-04-18T01:49:56.593Z,0
2017-04-18T01:50:56.582Z,0
2017-04-18T01:51:56.573Z,0
2017-04-18T01:52:56.257Z,0
2017-04-18T01:53:56.240Z,0
2017-04-18T01:54:56.535Z,0
2017-04-18T01:55:56.525Z,0
2017-04-18T01:56:56.506Z,0
2017-04-18T01:57:56.196Z,0
2017-04-18T01:58:56.483Z,0
2017-04-18T01:59:56.166Z,0
2017-04-18T02:00:56.457Z,0
2017-04-18T02:01:56.142Z,0
2017-04-18T02:02:56.464Z,0
2017-04-18T02:03:56.941Z,0
2017-04-18T02:04:56.406Z,0
2017-04-18T02:05:56.398Z,0
2017-04-18T02:06:56.383Z,0
2017-04-18T02:07:56.075Z,0
2017-04-18T02:08:56.389Z,0
2017-04-18T02:09:56.349Z,0
2017-04-18T02:10:56.339Z,0
2017-04-18T02:11:56.331Z,0
2017-04-18T02:12:56.335Z,0
2017-04-18T02:13:56.313Z,0
2017-04-18T02:14:56.292Z,0
2017-04-18T02:15:56.292Z,0
2017-04-18T02:16:56.265Z,0
2017-04-18T02:17:56.254Z,0
2017-04-18T02:18:56.242Z,0
2017-04-18T02:19:56.362Z,0
2017-04-18T02:20:56.216Z,0
2017-04-18T02:21:56.201Z,0
2017-04-18T02:22:56.193Z,0
2017-04-18T02:23:55.881Z,0
2017-04-18T02:24:56.172Z,0
2017-04-18T02:25:56.160Z,0
2017-04-18T02:26:56.146Z,0
2017-04-18T02:27:56.022Z,0
2017-04-18T02:28:56.122Z,0
2017-04-18T02:29:56.113Z,0
2017-04-18T02:30:56.098Z,0
2017-04-18T02:31:56.392Z,0
2017-04-18T02:32:56.072Z,0
2017-04-18T02:33:56.072Z,0
2017-04-18T02:34:56.054Z,0
2017-04-18T02:35:56.188Z,0
2017-04-18T02:36:56.188Z,0
2017-04-18T02:37:56.028Z,0
2017-04-18T02:38:56.006Z,0
2017-04-18T02:39:55.993Z,0
2017-04-18T02:40:55.983Z,0
2017-04-18T02:41:55.966Z,0
2017-04-18T02:42:55.659Z,0
2017-04-18T02:43:55.953Z,0
2017-04-18T02:44:55.970Z,0
2017-04-18T02:45:55.919Z,0
2017-04-18T02:46:55.921Z,0
2017-04-18T02:47:55.600Z,0
2017-04-18T02:48:55.887Z,0
2017-04-18T02:49:55.874Z,0
2017-04-18T02:50:55.559Z,0
2017-04-18T02:51:55.543Z,0
2017-04-18T02:52:56.194Z,0
2017-04-18T02:53:55.828Z,0
2017-04-18T02:54:55.815Z,0
2017-04-18T02:55:55.805Z,0
2017-04-18T02:56:55.788Z,0
2017-04-18T02:57:55.784Z,0
2017-04-18T02:58:55.771Z,0
2017-04-18T02:59:55.765Z,0
2017-04-18T03:00:55.747Z,0
2017-04-18T03:01:56.149Z,0
2017-04-18T03:02:55.717Z,0
2017-04-18T03:03:55.710Z,0
2017-04-18T03:04:55.699Z,0
2017-04-18T03:05:55.681Z,0
2017-04-18T03:06:55.919Z,0
2017-04-18T03:07:55.663Z,0
2017-04-18T03:08:55.348Z,0
2017-04-18T03:09:55.785Z,0
2017-04-18T03:10:55.625Z,0
2017-04-18T03:11:55.613Z,0
2017-04-18T03:12:55.295Z,0
2017-04-18T03:13:55.591Z,0
2017-04-18T03:14:55.583Z,0
2017-04-18T03:15:55.576Z,0
2017-04-18T03:16:55.550Z,0
2017-04-18T03:17:55.238Z,0
2017-04-18T03:18:55.531Z,0
2017-04-18T03:19:55.227Z,0
2017-04-18T03:20:55.515Z,0
2017-04-18T03:21:55.488Z,0
2017-04-18T03:22:55.479Z,0
2017-04-18T03:23:55.471Z,0
2017-04-18T03:24:55.460Z,0
2017-04-18T03:25:55.441Z,0
2017-04-18T03:26:55.431Z,0
2017-04-18T03:27:55.422Z,0
2017-04-18T03:28:55.411Z,0
2017-04-18T03:29:55.402Z,0
2017-04-18T03:30:55.383Z,0
2017-04-18T03:31:55.617Z,0
2017-04-18T03:32:55.062Z,0
2017-04-18T03:33:55.344Z,0
2017-04-18T03:34:55.516Z,0
2017-04-18T03:35:55.316Z,0
2017-04-18T03:36:55.308Z,0
2017-04-18T03:37:55.295Z,0
2017-04-18T03:38:54.980Z,0
2017-04-18T03:39:55.270Z,0
2017-04-18T03:40:55.257Z,0
2017-04-18T03:41:55.246Z,0
2017-04-18T03:42:55.326Z,0
2017-04-18T03:43:55.229Z,0
2017-04-18T03:44:55.215Z,0
2017-04-18T03:45:54.897Z,0
2017-04-18T03:46:55.186Z,0
2017-04-18T03:47:55.177Z,0
2017-04-18T03:48:54.859Z,0
2017-04-18T03:49:54.847Z,0
2017-04-18T03:50:55.138Z,0
2017-04-18T03:51:55.129Z,0
2017-04-18T03:52:54.815Z,0
2017-04-18T03:53:55.113Z,0
2017-04-18T03:54:55.093Z,0
2017-04-18T03:55:55.082Z,0
2017-04-18T03:56:55.064Z,0
2017-04-18T03:57:55.069Z,0
2017-04-18T03:58:55.046Z,0
2017-04-18T03:59:55.030Z,0
2017-04-18T04:00:55.014Z,5
2017-04-18T04:01:55.004Z,5
2017-04-18T04:02:54.999Z,5
2017-04-18T04:03:54.981Z,5
2017-04-18T04:04:54.967Z,5
2017-04-18T04:05:54.956Z,5
2017-04-18T04:06:54.946Z,5
2017-04-18T04:07:54.936Z,5
2017-04-18T04:08:54.958Z,5
2017-04-18T04:09:54.608Z,5
2017-04-18T04:10:54.591Z,5
2017-04-18T04:11:54.885Z,10
2017-04-18T04:12:54.883Z,10
2017-04-18T04:13:54.861Z,10
2017-04-18T04:14:54.853Z,10
2017-04-18T04:15:54.836Z,10
2017-04-18T04:16:54.824Z,10
2017-04-18T04:17:54.819Z,15
2017-04-18T04:18:54.806Z,15
2017-04-18T04:19:54.789Z,15
2017-04-18T04:20:54.472Z,15
2017-04-18T04:21:54.460Z,20
2017-04-18T04:22:54.754Z,25
2017-04-18T04:23:54.744Z,30
2017-04-18T04:24:54.939Z,25
2017-04-18T04:25:54.717Z,20
2017-04-18T04:26:54.706Z,20
2017-04-18T04:27:54.695Z,20
2017-04-18T04:28:54.684Z,15
2017-04-18T04:29:54.668Z,15
2017-04-18T04:30:54.654Z,15
2017-04-18T04:31:54.643Z,15
2017-04-18T04:32:54.833Z,15
2017-04-18T04:33:54.635Z,15
2017-04-18T04:34:54.616Z,15
2017-04-18T04:35:54.595Z,10
2017-04-18T04:36:54.584Z,10
2017-04-18T04:37:54.576Z,20
2017-04-18T04:38:54.565Z,20
2017-04-18T04:39:54.550Z,20
2017-04-18T04:40:54.622Z,15
2017-04-18T04:41:54.526Z,20
2017-04-18T04:42:54.520Z,25
2017-04-18T04:43:54.504Z,30
2017-04-18T04:44:54.487Z,25
2017-04-18T04:45:54.479Z,15
2017-04-18T04:46:54.466Z,10
2017-04-18T04:47:54.152Z,15
2017-04-18T04:48:54.459Z,20
2017-04-18T04:49:54.437Z,20
2017-04-18T04:50:54.423Z,20
2017-04-18T04:51:54.404Z,20
2017-04-18T04:52:54.397Z,20
2017-04-18T04:53:54.385Z,20
2017-04-18T04:54:54.372Z,20
2017-04-18T04:55:54.054Z,25
2017-04-18T04:56:54.411Z,35
2017-04-18T04:57:53.730Z,35
2017-04-18T04:58:54.324Z,40
2017-04-18T04:59:54.312Z,55
2017-04-18T05:00:54.302Z,90
2017-04-18T05:01:54.292Z,100
2017-04-18T05:02:54.282Z,80
2017-04-18T05:03:54.271Z,75
2017-04-18T05:04:54.377Z,85
2017-04-18T05:05:54.278Z,100
2017-04-18T05:06:54.232Z,85
2017-04-18T05:07:54.263Z,100
2017-04-18T05:08:54.209Z,105
2017-04-18T05:09:54.198Z,85
2017-04-18T05:10:54.183Z,75
2017-04-18T05:11:54.180Z,75
2017-04-18T05:12:54.298Z,80
2017-04-18T05:13:54.149Z,85
2017-04-18T05:14:54.138Z,100
2017-04-18T05:15:53.827Z,95
2017-04-18T05:16:54.116Z,90
2017-04-18T05:17:54.108Z,90
2017-04-18T05:18:54.093Z,95
2017-04-18T05:19:54.082Z,80
2017-04-18T05:20:54.067Z,75
2017-04-18T05:21:54.059Z,65
2017-04-18T05:22:54.048Z,60
2017-04-18T05:23:54.040Z,70
2017-04-18T05:24:54.026Z,85
2017-04-18T05:25:54.012Z,75
2017-04-18T05:26:54.001Z,65
2017-04-18T05:27:54.008Z,65
2017-04-18T05:28:54.225Z,60
2017-04-18T05:29:53.974Z,50
2017-04-18T05:30:53.957Z,45
2017-04-18T05:31:53.947Z,40
2017-04-18T05:32:53.937Z,35
2017-04-18T05:33:53.625Z,35
2017-04-18T05:34:53.913Z,40
2017-04-18T05:35:53.897Z,45
2017-04-18T05:36:53.888Z,50
2017-04-18T05:37:53.885Z,55
2017-04-18T05:38:53.868Z,70
2017-04-18T05:39:53.857Z,75
2017-04-18T05:40:53.852Z,70
2017-04-18T05:41:53.834Z,65
2017-04-18T05:42:53.826Z,70
2017-04-18T05:43:54.159Z,75
2017-04-18T05:44:53.804Z,90
2017-04-18T05:45:53.794Z,85
2017-04-18T05:46:53.785Z,85
2017-04-18T05:47:53.767Z,100
2017-04-18T05:48:53.756Z,105
2017-04-18T05:49:53.744Z,105
2017-04-18T05:50:53.732Z,115
2017-04-18T05:51:53.552Z,120
2017-04-18T05:52:53.716Z,125
2017-04-18T05:53:53.712Z,130
2017-04-18T05:54:53.721Z,150
2017-04-18T05:55:53.689Z,180
2017-04-18T05:56:53.665Z,185
2017-04-18T05:57:53.657Z,165
2017-04-18T05:58:53.655Z,130
2017-04-18T05:59:53.630Z,95
2017-04-18T06:00:53.619Z,75
2017-04-18T06:01:53.610Z,50
2017-04-18T06:02:53.609Z,50
2017-04-18T06:03:53.590Z,55
2017-04-18T06:04:53.576Z,60
2017-04-18T06:05:53.565Z,65
2017-04-18T06:06:53.572Z,70
2017-04-18T06:07:53.546Z,80
2017-04-18T06:08:53.540Z,115
2017-04-18T06:09:53.518Z,130
2017-04-18T06:10:53.510Z,140
2017-04-18T06:11:53.496Z,125
2017-04-18T06:12:53.185Z,90
2017-04-18T06:13:53.477Z,65
2017-04-18T06:14:53.461Z,65
2017-04-18T06:15:53.449Z,70
2017-04-18T06:16:53.439Z,100
2017-04-18T06:17:53.427Z,120
2017-04-18T06:18:53.417Z,105
2017-04-18T06:19:53.403Z,105
2017-04-18T06:20:53.391Z,115
2017-04-18T06:21:53.382Z,100
2017-04-18T06:22:53.627Z,85
2017-04-18T06:23:53.361Z,80
2017-04-18T06:24:53.343Z,85
2017-04-18T06:25:53.516Z,90
2017-04-18T06:26:53.321Z,80
2017-04-18T06:27:53.308Z,75
2017-04-18T06:28:53.297Z,90
2017-04-18T06:29:52.856Z,90
2017-04-18T06:30:53.273Z,85
2017-04-18T06:31:52.662Z,80
2017-04-18T06:32:53.254Z,80
2017-04-18T06:33:53.242Z,85
2017-04-18T06:34:53.230Z,100
2017-04-18T06:35:53.213Z,115
2017-04-18T06:36:53.205Z,135
2017-04-18T06:37:53.230Z,150
2017-04-18T06:38:53.332Z,145
2017-04-18T06:39:53.172Z,150
2017-04-18T06:40:53.163Z,155
2017-04-18T06:41:52.234Z,145
2017-04-18T06:42:53.138Z,115
2017-04-18T06:43:53.122Z,115
2017-04-18T06:44:53.109Z,125
2017-04-18T06:45:53.200Z,130
2017-04-18T06:46:53.093Z,155
2017-04-18T06:47:53.077Z,170
2017-04-18T06:48:53.063Z,195
2017-04-18T06:49:53.051Z,175
2017-04-18T06:50:52.738Z,195
2017-04-18T06:51:52.142Z,180
2017-04-18T06:52:53.015Z,195
2017-04-18T06:53:53.036Z,290
2017-04-18T06:54:53.158Z,285
2017-04-18T06:55:52.977Z,225
2017-04-18T06:56:52.964Z,230
2017-04-18T06:57:52.656Z,255
2017-04-18T06:58:52.945Z,270
2017-04-18T06:59:52.936Z,255
2017-04-18T07:00:52.918Z,280
2017-04-18T07:01:52.114Z,245
2017-04-18T07:02:53.134Z,215
2017-04-18T07:03:52.885Z,255
2017-04-18T07:04:52.877Z,275
2017-04-18T07:05:52.860Z,300
2017-04-18T07:06:52.847Z,240
2017-04-18T07:07:52.837Z,220
2017-04-18T07:08:52.833Z,230
2017-04-18T07:09:52.817Z,215
2017-04-18T07:10:52.803Z,205
2017-04-18T07:11:52.194Z,180
2017-04-18T07:12:52.203Z,205
2017-04-18T07:13:52.971Z,260
2017-04-18T07:14:52.459Z,285
2017-04-18T07:15:52.745Z,270
2017-04-18T07:16:52.434Z,225
2017-04-18T07:17:52.725Z,230
2017-04-18T07:18:52.858Z,210
2017-04-18T07:19:52.700Z,215
2017-04-18T07:20:52.688Z,215
2017-04-18T07:21:52.378Z,205
2017-04-18T07:22:51.764Z,260
2017-04-18T07:23:52.054Z,285
2017-04-18T07:24:52.645Z,285
2017-04-18T07:25:52.634Z,345
2017-04-18T07:26:52.628Z,375
2017-04-18T07:27:52.627Z,430
2017-04-18T07:28:52.605Z,325
2017-04-18T07:29:52.591Z,310
2017-04-18T07:30:52.577Z,320
2017-04-18T07:31:51.961Z,225
2017-04-18T07:32:51.340Z,240
2017-04-18T07:33:51.330Z,250
2017-04-18T07:34:51.375Z,275
2017-04-18T07:35:52.525Z,315
2017-04-18T07:36:52.260Z,345
2017-04-18T07:37:52.202Z,330
2017-04-18T07:38:52.496Z,270
2017-04-18T07:39:52.181Z,250
2017-04-18T07:40:51.858Z,305
2017-04-18T07:41:51.548Z,315
2017-04-18T07:42:51.373Z,390
2017-04-18T07:43:51.528Z,410
2017-04-18T07:44:51.204Z,395
2017-04-18T07:45:51.498Z,360
2017-04-18T07:46:52.099Z,300
2017-04-18T07:47:52.734Z,390
2017-04-18T07:48:52.381Z,320
2017-04-18T07:49:52.371Z,325
2017-04-18T07:50:52.362Z,265
2017-04-18T07:51:51.734Z,280
2017-04-18T07:52:51.119Z,290
2017-04-18T07:53:51.712Z,290
2017-04-18T07:54:51.409Z,270
2017-04-18T07:55:51.701Z,410
2017-04-18T07:56:51.584Z,410
2017-04-18T07:57:51.060Z,390
2017-04-18T07:58:52.275Z,475
2017-04-18T07:59:51.688Z,430
2017-04-18T08:00:51.638Z,510
2017-04-18T08:01:51.927Z,580
2017-04-18T08:02:52.225Z,535
2017-04-18T08:03:52.214Z,495
2017-04-18T08:04:52.198Z,590
2017-04-18T08:05:51.888Z,650
2017-04-18T08:06:52.180Z,520
2017-04-18T08:07:52.172Z,560
2017-04-18T08:08:52.162Z,515
2017-04-18T08:09:51.711Z,560
2017-04-18T08:10:52.136Z,450
2017-04-18T08:11:52.125Z,475
2017-04-18T08:12:52.115Z,425
2017-04-18T08:13:51.806Z,390
2017-04-18T08:14:51.189Z,520
2017-04-18T08:15:51.783Z,585
2017-04-18T08:16:51.773Z,440
2017-04-18T08:17:51.762Z,380
2017-04-18T08:18:52.060Z,345
2017-04-18T08:19:51.741Z,325
2017-04-18T08:20:51.426Z,435
2017-04-18T08:21:51.425Z,440
2017-04-18T08:22:51.716Z,420
2017-04-18T08:23:51.703Z,460
2017-04-18T08:24:51.693Z,490
2017-04-18T08:25:51.684Z,610
2017-04-18T08:26:51.579Z,545
2017-04-18T08:27:51.268Z,460
2017-04-18T08:28:51.352Z,495
2017-04-18T08:29:51.643Z,525
2017-04-18T08:30:51.637Z,605
2017-04-18T08:31:51.928Z,645
2017-04-18T08:32:51.920Z,660
2017-04-18T08:33:51.305Z,570
2017-04-18T08:34:51.293Z,695
2017-04-18T08:35:51.586Z,625
2017-04-18T08:36:51.575Z,615
2017-04-18T08:37:51.872Z,620
2017-04-18T08:38:51.259Z,565
2017-04-18T08:39:51.854Z,545
2017-04-18T08:40:51.844Z,525
2017-04-18T08:41:51.533Z,565
2017-04-18T08:42:51.824Z,540
2017-04-18T08:43:51.517Z,500
2017-04-18T08:44:51.509Z,515
2017-04-18T08:45:51.496Z,625
2017-04-18T08:46:51.496Z,600
2017-04-18T08:47:51.482Z,670
2017-04-18T08:48:51.471Z,565
2017-04-18T08:49:51.767Z,620
2017-04-18T08:50:51.465Z,615
2017-04-18T08:51:51.143Z,635
2017-04-18T08:52:50.834Z,590
2017-04-18T08:53:50.836Z,530
2017-04-18T08:54:50.832Z,575
2017-04-18T08:55:50.502Z,650
2017-04-18T08:56:51.101Z,665
2017-04-18T08:57:50.792Z,630
2017-04-18T08:58:51.091Z,670
2017-04-18T08:59:51.081Z,600
2017-04-18T09:00:51.073Z,620
2017-04-18T09:01:51.363Z,610
2017-04-18T09:02:51.768Z,590
2017-04-18T09:03:51.655Z,560
2017-04-18T09:04:51.346Z,590
2017-04-18T09:05:51.639Z,545
2017-04-18T09:06:51.637Z,605
2017-04-18T09:07:51.626Z,685
2017-04-18T09:08:51.614Z,720
2017-04-18T09:09:51.609Z,755
2017-04-18T09:10:51.602Z,705
2017-04-18T09:11:50.995Z,655
2017-04-18T09:12:51.591Z,635
2017-04-18T09:13:50.979Z,605
2017-04-18T09:14:51.270Z,700
2017-04-18T09:15:50.655Z,645
2017-04-18T09:16:50.650Z,600
2017-04-18T09:17:51.552Z,600
2017-04-18T09:18:51.547Z,610
2017-04-18T09:19:51.237Z,590
2017-04-18T09:20:51.228Z,550
2017-04-18T09:21:50.919Z,570
2017-04-18T09:22:51.518Z,570
2017-04-18T09:23:50.601Z,570
2017-04-18T09:24:51.505Z,560
2017-04-18T09:25:51.502Z,635
2017-04-18T09:26:51.187Z,660
2017-04-18T09:27:51.482Z,645
2017-04-18T09:28:51.483Z,655
2017-04-18T09:29:51.190Z,755
2017-04-18T09:30:51.466Z,825
2017-04-18T09:31:51.159Z,870
2017-04-18T09:32:51.453Z,785
2017-04-18T09:33:51.460Z,840
2017-04-18T09:34:51.435Z,790
2017-04-18T09:35:51.130Z,645
2017-04-18T09:36:51.417Z,755
2017-04-18T09:37:51.417Z,845
2017-04-18T09:38:51.417Z,875
2017-04-18T09:39:50.801Z,805
2017-04-18T09:40:50.821Z,705
2017-04-18T09:41:51.087Z,755
2017-04-18T09:42:51.085Z,830
2017-04-18T09:43:51.080Z,730
2017-04-18T09:44:51.370Z,695
2017-04-18T09:45:51.065Z,880
2017-04-18T09:46:51.360Z,895
2017-04-18T09:47:50.752Z,770
2017-04-18T09:48:51.365Z,620
2017-04-18T09:49:51.346Z,590
2017-04-18T09:50:50.741Z,570
2017-04-18T09:51:50.731Z,495
2017-04-18T09:52:51.325Z,610
2017-04-18T09:53:51.020Z,625
2017-04-18T09:54:50.712Z,675
2017-04-18T09:55:50.700Z,700
2017-04-18T09:56:51.107Z,670
2017-04-18T09:57:51.635Z,640
2017-04-18T09:58:51.292Z,550
2017-04-18T09:59:51.285Z,420
2017-04-18T10:00:51.277Z,445
2017-04-18T10:01:51.273Z,525
2017-04-18T10:02:51.269Z,535
2017-04-18T10:03:50.967Z,415
2017-04-18T10:04:50.954Z,350
2017-04-18T10:05:51.079Z,355
2017-04-18T10:06:50.942Z,350
2017-04-18T10:07:50.936Z,385
2017-04-18T10:08:50.938Z,405
2017-04-18T10:09:50.641Z,415
2017-04-18T10:10:50.917Z,430
2017-04-18T10:11:50.915Z,430
2017-04-18T10:12:50.906Z,440
2017-04-18T10:13:50.667Z,475
2017-04-18T10:14:50.910Z,460
2017-04-18T10:15:50.884Z,440
2017-04-18T10:16:50.880Z,465
2017-04-18T10:17:50.570Z,525
2017-04-18T10:18:51.167Z,585
2017-04-18T10:19:51.157Z,655
2017-04-18T10:20:50.862Z,695
2017-04-18T10:21:51.144Z,750
2017-04-18T10:22:51.142Z,720
2017-04-18T10:23:51.141Z,720
2017-04-18T10:24:51.130Z,655
2017-04-18T10:25:50.815Z,580
2017-04-18T10:26:50.818Z,595
2017-04-18T10:27:51.110Z,645
2017-04-18T10:28:50.796Z,610
2017-04-18T10:29:50.485Z,565
2017-04-18T10:30:51.086Z,485
2017-04-18T10:31:51.088Z,365
2017-04-18T10:32:51.370Z,315
2017-04-18T10:33:51.071Z,285
2017-04-18T10:34:50.762Z,245
2017-04-18T10:35:50.755Z,230
2017-04-18T10:36:51.051Z,225
2017-04-18T10:37:50.743Z,215
2017-04-18T10:38:50.743Z,215
2017-04-18T10:39:51.034Z,200
2017-04-18T10:40:51.094Z,195
2017-04-18T10:41:51.018Z,195
2017-04-18T10:42:51.017Z,200
2017-04-18T10:43:50.708Z,215
2017-04-18T10:44:50.700Z,250
2017-04-18T10:45:50.690Z,280
2017-04-18T10:46:50.684Z,325
2017-04-18T10:47:50.685Z,370
2017-04-18T10:48:50.974Z,420
2017-04-18T10:49:50.364Z,470
2017-04-18T10:50:50.354Z,530
2017-04-18T10:51:50.948Z,580
2017-04-18T10:52:50.646Z,590
2017-04-18T10:53:50.937Z,595
2017-04-18T10:54:50.934Z,605
2017-04-18T10:55:50.922Z,600
2017-04-18T10:56:50.915Z,590
2017-04-18T10:57:50.911Z,590
2017-04-18T10:58:50.604Z,590
2017-04-18T10:59:50.291Z,595
2017-04-18T11:00:50.581Z,550
2017-04-18T11:01:50.880Z,560
2017-04-18T11:02:50.269Z,610
2017-04-18T11:03:50.879Z,555
2017-04-18T11:04:50.566Z,455
2017-04-18T11:05:50.856Z,355
2017-04-18T11:06:50.242Z,280
2017-04-18T11:07:50.554Z,255
2017-04-18T11:08:50.531Z,235
2017-04-18T11:09:50.524Z,225
2017-04-18T11:10:50.520Z,220
2017-04-18T11:11:50.206Z,230
2017-04-18T11:12:50.503Z,250
2017-04-18T11:13:50.194Z,275
2017-04-18T11:14:50.191Z,325
2017-04-18T11:15:50.792Z,385
2017-04-18T11:16:49.868Z,430
2017-04-18T11:17:50.771Z,490
2017-04-18T11:18:50.467Z,515
2017-04-18T11:19:50.758Z,545
2017-04-18T11:20:50.747Z,590
2017-04-18T11:21:50.744Z,605
2017-04-18T11:22:50.737Z,540
2017-04-18T11:23:50.430Z,485
2017-04-18T11:24:50.724Z,430
2017-04-18T11:25:50.719Z,405
2017-04-18T11:26:50.711Z,370
2017-04-18T11:27:50.396Z,360
2017-04-18T11:28:50.737Z,365
2017-04-18T11:29:50.690Z,380
2017-04-18T11:30:50.681Z,405
2017-04-18T11:31:50.588Z,425
2017-04-18T11:32:50.411Z,440
2017-04-18T11:33:50.363Z,455
2017-04-18T11:34:50.352Z,470
2017-04-18T11:35:50.041Z,485
2017-04-18T11:36:50.642Z,485
2017-04-18T11:37:50.031Z,485
2017-04-18T11:38:50.026Z,485
2017-04-18T11:39:50.317Z,475
2017-04-18T11:40:50.721Z,455
2017-04-18T11:41:50.606Z,410
2017-04-18T11:42:50.301Z,390
2017-04-18T11:43:50.597Z,375
2017-04-18T11:44:50.585Z,370
2017-04-18T11:45:50.273Z,380
2017-04-18T11:46:50.266Z,395
2017-04-18T11:47:50.262Z,425
2017-04-18T11:48:50.556Z,455
2017-04-18T11:49:50.706Z,480
2017-04-18T11:50:50.542Z,520
2017-04-18T11:51:50.231Z,550
2017-04-18T11:52:50.540Z,600
2017-04-18T11:53:50.520Z,670
2017-04-18T11:54:50.215Z,685
2017-04-18T11:55:50.713Z,715
2017-04-18T11:56:50.201Z,715
2017-04-18T11:57:50.638Z,590
2017-04-18T11:58:50.183Z,520
2017-04-18T11:59:50.479Z,470
2017-04-18T12:00:50.478Z,440
2017-04-18T12:01:49.863Z,355
2017-04-18T12:02:50.463Z,290
2017-04-18T12:03:50.451Z,245
2017-04-18T12:04:50.144Z,215
2017-04-18T12:05:50.137Z,200
2017-04-18T12:06:50.128Z,180
2017-04-18T12:07:50.122Z,170
2017-04-18T12:08:50.420Z,235
2017-04-18T12:09:50.416Z,330
2017-04-18T12:10:50.416Z,385
2017-04-18T12:11:50.400Z,415
2017-04-18T12:12:50.394Z,445
2017-04-18T12:13:50.085Z,450
2017-04-18T12:14:50.381Z,445
2017-04-18T12:15:50.508Z,420
2017-04-18T12:16:49.765Z,400
2017-04-18T12:17:49.750Z,395
2017-04-18T12:18:50.349Z,430
2017-04-18T12:19:50.339Z,475
2017-04-18T12:20:50.035Z,500
2017-04-18T12:21:49.719Z,545
2017-04-18T12:22:50.319Z,560
2017-04-18T12:23:50.008Z,550
2017-04-18T12:24:49.996Z,515
2017-04-18T12:25:49.685Z,485
2017-04-18T12:26:49.984Z,480
2017-04-18T12:27:49.671Z,460
2017-04-18T12:28:49.665Z,470
2017-04-18T12:29:49.964Z,445
2017-04-18T12:30:49.646Z,430
2017-04-18T12:31:49.940Z,425
2017-04-18T12:32:49.935Z,420
2017-04-18T12:33:50.229Z,430
2017-04-18T12:34:49.918Z,440
2017-04-18T12:35:49.904Z,460
2017-04-18T12:36:48.987Z,490
2017-04-18T12:37:49.891Z,545
2017-04-18T12:38:49.578Z,570
2017-04-18T12:39:49.883Z,545
2017-04-18T12:40:50.179Z,535
2017-04-18T12:41:50.165Z,500
2017-04-18T12:42:49.242Z,425
2017-04-18T12:43:49.541Z,365
2017-04-18T12:44:49.535Z,335
2017-04-18T12:45:50.134Z,320
2017-04-18T12:46:50.336Z,310
2017-04-18T12:47:49.806Z,310
2017-04-18T12:48:49.798Z,310
2017-04-18T12:49:50.101Z,330
2017-04-18T12:50:50.092Z,355
2017-04-18T12:51:49.781Z,400
2017-04-18T12:52:49.466Z,445
2017-04-18T12:53:49.757Z,490
2017-04-18T12:54:49.752Z,510
2017-04-18T12:55:49.743Z,525
2017-04-18T12:56:49.741Z,555
2017-04-18T12:57:49.422Z,560
2017-04-18T12:58:49.415Z,505
2017-04-18T12:59:49.409Z,460
2017-04-18T13:00:50.089Z,450
2017-04-18T13:01:49.997Z,470
2017-04-18T13:02:48.786Z,490
2017-04-18T13:03:49.680Z,490
2017-04-18T13:04:49.671Z,480
2017-04-18T13:05:49.663Z,470
2017-04-18T13:06:49.353Z,460
2017-04-18T13:07:49.645Z,465
2017-04-18T13:08:49.671Z,470
2017-04-18T13:09:49.726Z,495
2017-04-18T13:10:49.625Z,500
2017-04-18T13:11:50.263Z,450
2017-04-18T13:12:48.703Z,405
2017-04-18T13:13:49.610Z,410
2017-04-18T13:14:49.908Z,455
2017-04-18T13:15:49.892Z,490
2017-04-18T13:16:49.593Z,465
2017-04-18T13:17:49.277Z,440
2017-04-18T13:18:49.328Z,390
2017-04-18T13:19:49.255Z,395
2017-04-18T13:20:49.550Z,455
2017-04-18T13:21:49.858Z,555
2017-04-18T13:22:48.625Z,515
2017-04-18T13:23:48.623Z,480
2017-04-18T13:24:49.220Z,555
2017-04-18T13:25:49.516Z,570
2017-04-18T13:26:49.813Z,505
2017-04-18T13:27:49.505Z,555
2017-04-18T13:28:49.797Z,565
2017-04-18T13:29:49.484Z,515
2017-04-18T13:30:50.087Z,430
2017-04-18T13:31:49.784Z,395
2017-04-18T13:32:48.553Z,370
2017-04-18T13:33:49.554Z,350
2017-04-18T13:34:49.462Z,345
2017-04-18T13:35:49.744Z,340
2017-04-18T13:36:49.439Z,335
2017-04-18T13:37:49.905Z,345
2017-04-18T13:38:48.813Z,385
2017-04-18T13:39:49.115Z,440
2017-04-18T13:40:49.408Z,530
2017-04-18T13:41:49.399Z,575
2017-04-18T13:42:48.787Z,545
2017-04-18T13:43:49.100Z,505
2017-04-18T13:44:48.473Z,470
2017-04-18T13:45:48.768Z,450
2017-04-18T13:46:49.717Z,440
2017-04-18T13:47:49.058Z,435
2017-04-18T13:48:49.655Z,455
2017-04-18T13:49:49.060Z,490
2017-04-18T13:50:49.338Z,470
2017-04-18T13:51:49.634Z,385
2017-04-18T13:52:48.717Z,295
2017-04-18T13:53:48.406Z,270
2017-04-18T13:54:48.414Z,270
2017-04-18T13:55:48.598Z,285
2017-04-18T13:56:48.689Z,285
2017-04-18T13:57:48.983Z,270
2017-04-18T13:58:49.287Z,265
2017-04-18T13:59:49.575Z,275
2017-04-18T14:00:49.267Z,290
2017-04-18T14:01:49.568Z,310
2017-04-18T14:02:48.950Z,340
2017-04-18T14:03:48.334Z,370
2017-04-18T14:04:48.844Z,420
2017-04-18T14:05:48.886Z,475
2017-04-18T14:06:48.327Z,540
2017-04-18T14:07:48.607Z,560